createdAt,value
2019-01-27T00:00:56.049Z,98733.34
2019-01-27T00:03:24.935Z,98732.03
2019-01-27T00:05:53.216Z,98727.67
2019-01-27T00:08:21.501Z,98722.00
2019-01-27T00:10:49.776Z,98700.56
2019-01-27T00:13:18.172Z,98702.75
2019-01-27T00:15:46.462Z,98698.83
2019-01-27T00:18:14.785Z,98688.76
2019-01-27T00:20:43.063Z,98683.52
2019-01-27T00:23:11.301Z,98679.58
2019-01-27T00:25:39.567Z,98680.02
2019-01-27T00:28:07.856Z,98670.84
2019-01-27T00:30:36.103Z,98665.15
2019-01-27T00:33:04.734Z,98665.98
2019-01-27T00:35:32.997Z,98655.92
2019-01-27T00:38:01.247Z,98653.73
2019-01-27T00:40:29.560Z,98660.69
2019-01-27T00:42:57.844Z,98660.66
2019-01-27T00:45:26.117Z,98645.39
2019-01-27T00:47:54.354Z,98649.29
2019-01-27T00:50:22.605Z,98656.73
2019-01-27T00:52:50.879Z,98652.80
2019-01-27T00:55:24.009Z,98650.60
2019-01-27T00:57:52.423Z,98638.38
2019-01-27T01:00:27.569Z,98643.63
2019-01-27T01:02:55.821Z,98637.53
2019-01-27T01:05:24.086Z,98635.77
2019-01-27T01:07:52.362Z,98634.88
2019-01-27T01:10:22.419Z,98625.70
2019-01-27T01:12:50.647Z,98623.51
2019-01-27T01:15:19.044Z,98628.33
2019-01-27T01:17:47.283Z,98617.42
2019-01-27T01:20:18.465Z,98613.52
2019-01-27T01:22:47.536Z,98608.72
2019-01-27T01:25:18.446Z,98601.76
2019-01-27T01:27:46.693Z,98596.51
2019-01-27T01:30:28.965Z,98596.53
2019-01-27T01:32:57.373Z,98586.45
2019-01-27T01:35:25.614Z,98580.80
2019-01-27T01:37:54.166Z,98579.47
2019-01-27T01:40:22.513Z,98565.48
2019-01-27T01:42:50.869Z,98566.79
2019-01-27T01:45:25.279Z,98560.25
2019-01-27T01:47:53.568Z,98564.17
2019-01-27T01:50:21.853Z,98557.19
2019-01-27T01:52:50.073Z,98559.38
2019-01-27T01:55:18.425Z,98554.13
2019-01-27T01:57:46.705Z,98546.25
2019-01-27T02:00:23.854Z,98536.64
2019-01-27T02:02:52.076Z,98538.41
2019-01-27T02:05:20.459Z,98532.72
2019-01-27T02:07:48.745Z,98527.89
2019-01-27T02:10:18.827Z,98513.47
2019-01-27T02:12:47.108Z,98510.42
2019-01-27T02:15:30.438Z,98503.41
2019-01-27T02:17:58.717Z,98492.52
2019-01-27T02:20:26.976Z,98490.77
2019-01-27T02:22:55.223Z,98493.80
2019-01-27T02:25:23.466Z,98482.43
2019-01-27T02:27:51.741Z,98477.61
2019-01-27T02:30:20.023Z,98466.29
2019-01-27T02:32:48.308Z,98472.42
2019-01-27T02:35:16.595Z,98464.97
2019-01-27T02:37:44.826Z,98460.61
2019-01-27T02:40:13.123Z,98453.17
2019-01-27T02:42:41.383Z,98440.91
2019-01-27T02:45:14.603Z,98427.78
2019-01-27T02:47:42.882Z,98424.30
2019-01-27T02:50:11.566Z,98406.37
2019-01-27T02:52:39.834Z,98411.61
2019-01-27T02:55:08.840Z,98402.44
2019-01-27T02:57:37.110Z,98396.31
2019-01-27T03:00:16.362Z,98395.44
2019-01-27T03:02:44.644Z,98394.13
2019-01-27T03:05:30.868Z,98392.81
2019-01-27T03:07:59.169Z,98388.02
2019-01-27T03:10:27.460Z,98385.41
2019-01-27T03:12:55.735Z,98378.39
2019-01-27T03:15:23.976Z,98384.97
2019-01-27T03:17:52.249Z,98379.73
2019-01-27T03:20:20.535Z,98377.12
2019-01-27T03:22:48.817Z,98368.81
2019-01-27T03:25:18.302Z,98351.30
2019-01-27T03:27:46.541Z,98347.82
2019-01-27T03:30:19.728Z,98340.79
2019-01-27T03:32:48.135Z,98335.12
2019-01-27T03:35:16.363Z,98333.81
2019-01-27T03:37:44.631Z,98328.15
2019-01-27T03:40:20.499Z,98318.08
2019-01-27T03:42:48.913Z,98311.52
2019-01-27T03:45:18.912Z,98310.63
2019-01-27T03:47:47.261Z,98302.75
2019-01-27T03:50:19.600Z,98304.52
2019-01-27T03:52:47.917Z,98294.02
2019-01-27T03:55:21.912Z,98292.27
2019-01-27T03:57:50.230Z,98288.34
2019-01-27T04:00:22.538Z,98274.34
2019-01-27T04:02:50.810Z,98273.91
2019-01-27T04:05:19.040Z,98260.80
2019-01-27T04:07:47.281Z,98259.94
2019-01-27T04:10:18.810Z,98257.77
2019-01-27T04:12:47.088Z,98248.55
2019-01-27T04:15:15.858Z,98249.00
2019-01-27T04:17:44.147Z,98241.58
2019-01-27T04:20:15.281Z,98245.52
2019-01-27T04:22:43.556Z,98241.13
2019-01-27T04:25:11.976Z,98235.48
2019-01-27T04:27:40.218Z,98233.70
2019-01-27T04:30:24.508Z,98222.33
2019-01-27T04:32:52.755Z,98221.44
2019-01-27T04:35:21.035Z,98228.00
2019-01-27T04:37:49.336Z,98211.81
2019-01-27T04:40:22.549Z,98210.05
2019-01-27T04:42:50.853Z,98213.11
2019-01-27T04:45:35.744Z,98208.30
2019-01-27T04:48:04.509Z,98200.01
2019-01-27T04:50:32.736Z,98197.83
2019-01-27T04:53:01.019Z,98200.93
2019-01-27T04:55:29.261Z,98198.29
2019-01-27T04:57:57.500Z,98196.99
2019-01-27T05:00:26.833Z,98193.50
2019-01-27T05:03:02.478Z,98190.47
2019-01-27T05:05:33.505Z,98189.13
2019-01-27T05:08:01.755Z,98186.53
2019-01-27T05:10:30.036Z,98181.73
2019-01-27T05:12:58.275Z,98176.48
2019-01-27T05:15:28.209Z,98175.64
2019-01-27T05:17:56.483Z,98177.38
2019-01-27T05:20:24.734Z,98169.95
2019-01-27T05:22:52.998Z,98164.70
2019-01-27T05:25:21.229Z,98155.09
2019-01-27T05:27:49.509Z,98156.81
2019-01-27T05:30:28.346Z,98150.73
2019-01-27T05:32:56.585Z,98139.79
2019-01-27T05:35:24.874Z,98144.60
2019-01-27T05:37:53.106Z,98141.55
2019-01-27T05:40:22.145Z,98141.08
2019-01-27T05:42:50.394Z,98131.02
2019-01-27T05:45:22.820Z,98127.97
2019-01-27T05:47:51.111Z,98126.20
2019-01-27T05:50:21.324Z,98124.04
2019-01-27T05:52:49.568Z,98122.71
2019-01-27T05:55:19.958Z,98114.83
2019-01-27T05:57:48.249Z,98110.00
2019-01-27T06:00:24.001Z,98117.02
2019-01-27T06:02:52.276Z,98101.28
2019-01-27T06:05:20.639Z,98093.88
2019-01-27T06:07:48.953Z,98093.88
2019-01-27T06:10:17.558Z,98090.39
2019-01-27T06:12:45.787Z,98089.10
2019-01-27T06:15:17.156Z,98080.77
2019-01-27T06:17:45.419Z,98081.67
2019-01-27T06:20:17.252Z,98071.17
2019-01-27T06:22:45.514Z,98068.59
2019-01-27T06:25:17.091Z,98064.19
2019-01-27T06:27:47.110Z,98067.66
2019-01-27T06:30:24.011Z,98070.69
2019-01-27T06:33:05.768Z,98062.83
2019-01-27T06:35:34.161Z,98061.52
2019-01-27T06:38:02.450Z,98053.62
2019-01-27T06:40:30.797Z,98048.83
2019-01-27T06:42:59.118Z,98046.62
2019-01-27T06:45:27.390Z,98038.33
2019-01-27T06:47:55.710Z,98037.42
2019-01-27T06:50:23.998Z,98030.44
2019-01-27T06:52:52.270Z,98025.66
2019-01-27T06:55:21.576Z,98033.09
2019-01-27T06:57:49.857Z,98034.45
2019-01-27T07:00:27.811Z,98027.91
2019-01-27T07:02:57.760Z,98031.83
2019-01-27T07:05:30.262Z,98029.18
2019-01-27T07:08:12.286Z,98026.48
2019-01-27T07:10:58.366Z,98036.97
2019-01-27T07:13:34.039Z,98036.05
2019-01-27T07:16:12.728Z,98031.19
2019-01-27T07:18:45.086Z,98025.03
2019-01-27T07:21:17.833Z,98026.30
2019-01-27T07:24:02.714Z,98032.38
2019-01-27T07:26:36.045Z,98028.88
2019-01-27T07:29:20.931Z,98027.92
2019-01-27T07:32:02.881Z,98025.73
2019-01-27T07:34:32.800Z,98024.81
2019-01-27T07:37:18.931Z,98021.29
2019-01-27T07:39:48.858Z,98014.70
2019-01-27T07:42:18.813Z,98011.13
2019-01-27T07:44:51.136Z,98021.17
2019-01-27T07:47:29.838Z,98009.38
2019-01-27T07:50:05.246Z,98008.90
2019-01-27T07:52:35.137Z,98011.02
2019-01-27T07:55:22.752Z,98003.59
2019-01-27T07:57:55.599Z,97995.72
2019-01-27T08:00:31.454Z,97993.95
2019-01-27T08:03:04.308Z,97988.69
2019-01-27T08:05:43.075Z,97987.30
2019-01-27T08:08:18.949Z,97984.66
2019-01-27T08:10:49.167Z,97980.26
2019-01-27T08:13:19.055Z,97979.39
2019-01-27T08:15:51.395Z,97977.13
2019-01-27T08:18:21.271Z,97969.55
2019-01-27T08:20:54.280Z,97973.44
2019-01-27T08:23:24.186Z,97975.96
2019-01-27T08:25:54.101Z,97969.70
2019-01-27T08:28:24.011Z,97973.54
2019-01-27T08:30:53.928Z,97972.94
2019-01-27T08:33:26.280Z,97966.75
2019-01-27T08:36:12.262Z,97964.53
2019-01-27T08:38:47.868Z,97962.81
2019-01-27T08:41:32.935Z,97955.43
2019-01-27T08:44:19.003Z,97959.31
2019-01-27T08:46:49.047Z,97949.18
2019-01-27T08:49:17.325Z,97946.77
2019-01-27T08:51:45.598Z,97937.88
2019-01-27T08:54:13.841Z,97938.72
2019-01-27T08:56:42.318Z,97935.72
2019-01-27T08:59:10.692Z,97933.81
2019-01-27T09:01:43.350Z,97932.68
2019-01-27T09:04:13.230Z,97924.16
2019-01-27T09:06:46.462Z,97925.04
2019-01-27T09:09:28.052Z,97919.20
2019-01-27T09:12:10.118Z,97910.84
2019-01-27T09:14:48.637Z,97908.55
2019-01-27T09:17:36.790Z,97903.33
2019-01-27T09:20:13.264Z,97892.55
2019-01-27T09:22:48.749Z,97907.10
2019-01-27T09:25:34.838Z,97894.95
2019-01-27T09:28:23.933Z,97897.63
2019-01-27T09:30:53.846Z,97897.63
2019-01-27T09:33:26.443Z,97901.22
2019-01-27T09:36:12.314Z,97895.12
2019-01-27T09:38:42.209Z,97897.87
2019-01-27T09:41:18.208Z,97897.83
2019-01-27T09:43:48.202Z,97894.33
2019-01-27T09:46:21.022Z,97897.51
2019-01-27T09:48:53.863Z,97894.00
2019-01-27T09:51:27.786Z,97902.50
2019-01-27T09:54:09.669Z,97898.36
2019-01-27T09:56:45.523Z,97897.84
2019-01-27T09:59:21.721Z,97889.66
2019-01-27T10:01:51.620Z,97881.04
2019-01-27T10:04:21.549Z,97897.55
2019-01-27T10:07:00.129Z,97887.90
2019-01-27T10:09:36.152Z,97875.97
2019-01-27T10:12:12.157Z,97862.48
2019-01-27T10:14:44.618Z,97865.36
2019-01-27T10:17:29.880Z,97863.28
2019-01-27T10:19:59.758Z,97870.27
2019-01-27T10:22:29.914Z,97863.59
2019-01-27T10:25:05.871Z,97865.77
2019-01-27T10:27:41.286Z,97861.50
2019-01-27T10:30:20.652Z,97861.50
2019-01-27T10:32:56.334Z,97862.14
2019-01-27T10:35:26.325Z,97849.74
2019-01-27T10:38:11.480Z,97853.03
2019-01-27T10:40:47.558Z,97847.55
2019-01-27T10:43:17.403Z,97847.99
2019-01-27T10:45:49.997Z,97844.24
2019-01-27T10:48:28.817Z,97840.55
2019-01-27T10:51:01.635Z,97839.59
2019-01-27T10:53:36.334Z,97820.84
2019-01-27T10:56:06.521Z,97838.02
2019-01-27T10:58:42.381Z,97830.55
2019-01-27T11:01:27.609Z,97816.06
2019-01-27T11:04:03.310Z,97814.91
2019-01-27T11:06:42.356Z,97821.63
2019-01-27T11:09:18.003Z,97827.03
2019-01-27T11:11:50.648Z,97818.70
2019-01-27T11:14:20.533Z,97816.34
2019-01-27T11:16:53.106Z,97807.44
2019-01-27T11:19:39.608Z,97808.17
2019-01-27T11:22:21.966Z,97804.66
2019-01-27T11:24:54.560Z,97795.66
2019-01-27T11:27:24.591Z,97794.47
2019-01-27T11:29:55.854Z,97797.51
2019-01-27T11:32:25.778Z,97790.02
2019-01-27T11:34:55.758Z,97781.47
2019-01-27T11:37:37.498Z,97770.18
2019-01-27T11:40:26.108Z,97770.18
2019-01-27T11:42:56.109Z,97764.25
2019-01-27T11:45:25.995Z,97761.82
2019-01-27T11:48:12.357Z,97756.77
2019-01-27T11:50:42.256Z,97755.38
2019-01-27T11:53:10.790Z,97750.98
2019-01-27T11:55:39.562Z,97742.36
2019-01-27T11:58:08.072Z,97744.98
2019-01-27T12:00:37.421Z,97743.05
2019-01-27T12:03:05.768Z,97737.01
2019-01-27T12:05:34.089Z,97733.52
2019-01-27T12:08:02.411Z,97738.44
2019-01-27T12:10:30.655Z,97727.88
2019-01-27T12:12:58.887Z,97740.45
2019-01-27T12:15:27.186Z,97736.91
2019-01-27T12:17:55.546Z,97722.80
2019-01-27T12:20:23.840Z,97733.58
2019-01-27T12:22:52.135Z,97723.83
2019-01-27T12:25:20.376Z,97716.61
2019-01-27T12:27:48.687Z,97725.62
2019-01-27T12:30:18.930Z,97715.06
2019-01-27T12:32:47.170Z,97706.85
2019-01-27T12:35:15.531Z,97715.70
2019-01-27T12:37:43.820Z,97702.95
2019-01-27T12:40:20.962Z,97700.81
2019-01-27T12:42:49.245Z,97708.78
2019-01-27T12:45:17.647Z,97701.36
2019-01-27T12:47:46.059Z,97703.57
2019-01-27T12:50:18.932Z,97700.59
2019-01-27T12:52:49.512Z,97693.72
2019-01-27T12:55:18.018Z,97688.50
2019-01-27T12:57:46.328Z,97690.05
2019-01-27T13:00:29.876Z,97689.62
2019-01-27T13:02:58.223Z,97684.89
2019-01-27T13:05:26.648Z,97684.89
2019-01-27T13:07:55.062Z,97676.81
2019-01-27T13:10:23.399Z,97675.77
2019-01-27T13:12:51.709Z,97668.14
2019-01-27T13:15:21.530Z,97662.75
2019-01-27T13:17:49.744Z,97672.32
2019-01-27T13:20:18.223Z,97669.08
2019-01-27T13:22:46.962Z,97670.02
2019-01-27T13:25:17.549Z,97660.50
2019-01-27T13:27:45.782Z,97655.45
2019-01-27T13:30:18.943Z,97660.63
2019-01-27T13:32:47.225Z,97657.50
2019-01-27T13:35:15.469Z,97647.09
2019-01-27T13:37:43.886Z,97645.50
2019-01-27T13:40:15.454Z,97653.13
2019-01-27T13:42:43.759Z,97645.63
2019-01-27T13:45:15.130Z,97643.20
2019-01-27T13:47:43.492Z,97644.67
2019-01-27T13:50:13.964Z,97651.40
2019-01-27T13:52:42.274Z,97636.88
2019-01-27T13:55:16.871Z,97636.88
2019-01-27T13:57:45.101Z,97645.62
2019-01-27T14:00:16.780Z,97636.88
2019-01-27T14:02:45.062Z,97627.67
2019-01-27T14:05:13.344Z,97622.80
2019-01-27T14:07:42.019Z,97626.25
2019-01-27T14:10:22.127Z,97623.44
2019-01-27T14:12:50.581Z,97636.16
2019-01-27T14:15:27.154Z,97628.46
2019-01-27T14:17:55.506Z,97628.11
2019-01-27T14:20:24.175Z,97631.30
2019-01-27T14:22:52.459Z,97617.62
2019-01-27T14:25:23.098Z,97632.75
2019-01-27T14:27:52.113Z,97626.23
2019-01-27T14:30:31.156Z,97631.09
2019-01-27T14:32:59.526Z,97630.16
2019-01-27T14:35:27.802Z,97618.94
2019-01-27T14:37:56.079Z,97633.44
2019-01-27T14:40:26.391Z,97626.77
2019-01-27T14:42:54.712Z,97632.52
2019-01-27T14:45:25.005Z,97636.56
2019-01-27T14:47:53.318Z,97625.69
2019-01-27T14:50:30.964Z,97636.28
2019-01-27T14:52:59.306Z,97637.77
2019-01-27T14:55:27.543Z,97635.05
2019-01-27T14:57:55.822Z,97636.81
2019-01-27T15:00:36.593Z,97638.65
2019-01-27T15:03:05.807Z,97639.14
2019-01-27T15:05:34.110Z,97638.41
2019-01-27T15:08:02.367Z,97640.38
2019-01-27T15:10:32.007Z,97638.67
2019-01-27T15:13:00.230Z,97635.66
2019-01-27T15:15:29.212Z,97638.00
2019-01-27T15:17:57.479Z,97639.36
2019-01-27T15:20:34.686Z,97639.52
2019-01-27T15:23:02.920Z,97643.48
2019-01-27T15:25:31.263Z,97645.31
2019-01-27T15:27:59.495Z,97647.64
2019-01-27T15:30:30.468Z,97644.66
2019-01-27T15:32:58.849Z,97639.48
2019-01-27T15:35:27.180Z,97638.70
2019-01-27T15:37:55.411Z,97637.50
2019-01-27T15:40:23.688Z,97644.17
2019-01-27T15:42:51.958Z,97646.84
2019-01-27T15:45:23.364Z,97643.02
2019-01-27T15:47:51.600Z,97641.87
2019-01-27T15:50:28.380Z,97647.29
2019-01-27T15:52:56.651Z,97649.20
2019-01-27T15:55:24.889Z,97643.27
2019-01-27T15:57:54.060Z,97643.94
2019-01-27T16:00:27.869Z,97647.20
2019-01-27T16:02:56.111Z,97651.25
2019-01-27T16:05:24.535Z,97654.83
2019-01-27T16:07:52.769Z,97651.44
2019-01-27T16:10:25.231Z,97648.00
2019-01-27T16:12:54.664Z,97649.42
2019-01-27T16:15:29.480Z,97650.84
2019-01-27T16:17:57.727Z,97645.66
2019-01-27T16:20:26.161Z,97654.93
2019-01-27T16:23:12.287Z,97656.72
2019-01-27T16:25:41.515Z,97654.97
2019-01-27T16:28:09.912Z,97654.97
2019-01-27T16:30:58.003Z,97657.19
2019-01-27T16:33:40.413Z,97665.03
2019-01-27T16:36:08.685Z,97664.16
2019-01-27T16:38:36.920Z,97659.41
2019-01-27T16:41:05.198Z,97663.35
2019-01-27T16:43:33.431Z,97658.57
2019-01-27T16:46:01.733Z,97658.12
2019-01-27T16:48:29.971Z,97662.55
2019-01-27T16:50:58.247Z,97666.08
2019-01-27T16:53:26.505Z,97664.84
2019-01-27T16:55:54.781Z,97663.99
2019-01-27T16:58:23.125Z,97660.48
2019-01-27T17:00:51.376Z,97664.02
2019-01-27T17:03:20.200Z,97655.27
2019-01-27T17:05:48.717Z,97661.77
2019-01-27T17:08:17.065Z,97652.14
2019-01-27T17:10:45.304Z,97656.95
2019-01-27T17:13:13.543Z,97660.42
2019-01-27T17:15:42.854Z,97649.88
2019-01-27T17:18:11.129Z,97657.30
2019-01-27T17:20:39.462Z,97661.23
2019-01-27T17:23:07.831Z,97662.95
2019-01-27T17:25:36.915Z,97660.28
2019-01-27T17:28:05.494Z,97662.84
2019-01-27T17:30:34.151Z,97660.66
2019-01-27T17:33:02.395Z,97665.00
2019-01-27T17:35:30.898Z,97659.31
2019-01-27T17:38:00.137Z,97659.34
2019-01-27T17:40:28.562Z,97660.28
2019-01-27T17:42:56.917Z,97661.60
2019-01-27T17:45:26.886Z,97655.47
2019-01-27T17:47:55.377Z,97659.41
2019-01-27T17:50:24.395Z,97660.36
2019-01-27T17:52:52.681Z,97653.79
2019-01-27T17:55:45.349Z,97662.20
2019-01-27T17:58:33.336Z,97661.87
2019-01-27T18:01:06.288Z,97666.31
2019-01-27T18:03:38.932Z,97661.91
2019-01-27T18:06:25.419Z,97656.65
2019-01-27T18:09:11.784Z,97665.00
2019-01-27T18:11:41.669Z,97660.28
2019-01-27T18:14:11.613Z,97670.05
2019-01-27T18:16:39.937Z,97667.92
2019-01-27T18:19:08.707Z,97675.35
2019-01-27T18:21:37.044Z,97676.10
2019-01-27T18:24:05.597Z,97671.19
2019-01-27T18:26:33.973Z,97675.00
2019-01-27T18:29:02.289Z,97669.28
2019-01-27T18:31:30.622Z,97672.28
2019-01-27T18:33:58.892Z,97675.27
2019-01-27T18:36:28.834Z,97674.36
2019-01-27T18:38:57.415Z,97677.83
2019-01-27T18:41:25.808Z,97683.55
2019-01-27T18:43:54.504Z,97686.69
2019-01-27T18:46:23.073Z,97695.91
2019-01-27T18:48:51.642Z,97696.34
2019-01-27T18:51:19.880Z,97694.13
2019-01-27T18:53:52.842Z,97699.31
2019-01-27T18:56:25.725Z,97704.09
2019-01-27T18:59:07.858Z,97702.38
2019-01-27T19:01:40.877Z,97701.09
2019-01-27T19:04:14.157Z,97704.16
2019-01-27T19:06:44.049Z,97708.06
2019-01-27T19:09:29.285Z,97714.13
2019-01-27T19:12:14.456Z,97714.57
2019-01-27T19:14:53.417Z,97719.83
2019-01-27T19:17:23.293Z,97716.80
2019-01-27T19:19:56.126Z,97718.17
2019-01-27T19:22:35.064Z,97723.92
2019-01-27T19:25:06.316Z,97722.70
2019-01-27T19:27:41.940Z,97720.14
2019-01-27T19:30:23.278Z,97722.33
2019-01-27T19:33:05.008Z,97728.92
2019-01-27T19:35:51.611Z,97728.89
2019-01-27T19:38:39.490Z,97731.09
2019-01-27T19:41:09.544Z,97739.41
2019-01-27T19:43:42.288Z,97741.16
2019-01-27T19:46:12.331Z,97732.90
2019-01-27T19:48:42.278Z,97741.71
2019-01-27T19:51:18.380Z,97739.93
2019-01-27T19:53:51.452Z,97746.47
2019-01-27T19:56:37.828Z,97739.03
2019-01-27T19:59:10.725Z,97748.22
2019-01-27T20:01:40.614Z,97751.66
2019-01-27T20:04:10.647Z,97751.16
2019-01-27T20:06:40.529Z,97761.63
2019-01-27T20:10:05.758Z,97768.58
2019-01-27T20:12:39.530Z,97768.20
2019-01-27T20:15:13.752Z,97774.33
2019-01-27T20:17:47.394Z,97777.92
2019-01-27T20:20:24.311Z,97782.79
2019-01-27T20:23:11.532Z,97785.44
2019-01-27T20:25:48.173Z,97791.19
2019-01-27T20:28:19.002Z,97790.37
2019-01-27T20:31:08.257Z,97798.80
2019-01-27T20:33:45.292Z,97797.59
2019-01-27T20:36:19.041Z,97804.24
2019-01-27T20:38:49.892Z,97804.72
2019-01-27T20:41:26.220Z,97814.84
2019-01-27T20:44:09.301Z,97814.48
2019-01-27T20:46:43.312Z,97816.31
2019-01-27T20:49:17.554Z,97826.84
2019-01-27T20:51:48.527Z,97825.59
2019-01-27T20:54:31.617Z,97833.50
2019-01-27T20:57:04.011Z,97832.67
2019-01-27T20:59:35.882Z,97832.77
2019-01-27T21:02:18.883Z,97842.44
2019-01-27T21:04:56.548Z,97842.91
2019-01-27T21:07:25.396Z,97848.23
2019-01-27T21:10:02.037Z,97849.56
2019-01-27T21:12:32.882Z,97842.28
2019-01-27T21:15:12.991Z,97849.77
2019-01-27T21:17:53.012Z,97862.03
2019-01-27T21:20:22.426Z,97862.52
2019-01-27T21:22:51.612Z,97871.28
2019-01-27T21:25:21.243Z,97868.70
2019-01-27T21:27:51.717Z,97875.71
2019-01-27T21:30:20.969Z,97883.58
2019-01-27T21:32:50.154Z,97887.11
2019-01-27T21:35:19.386Z,97892.83
2019-01-27T21:37:48.613Z,97892.83
2019-01-27T21:40:18.662Z,97890.26
2019-01-27T21:42:47.956Z,97894.66
2019-01-27T21:45:17.442Z,97899.88
2019-01-27T21:47:46.823Z,97903.80
2019-01-27T21:50:17.658Z,97910.36
2019-01-27T21:52:46.906Z,97911.22
2019-01-27T21:55:16.181Z,97912.11
2019-01-27T21:57:45.431Z,97910.80
2019-01-27T22:00:18.053Z,97913.02
2019-01-27T22:02:47.301Z,97918.70
2019-01-27T22:05:16.540Z,97910.84
2019-01-27T22:07:46.022Z,97922.66
2019-01-27T22:10:15.685Z,97921.81
2019-01-27T22:12:44.889Z,97923.09
2019-01-27T22:15:14.234Z,97931.36
2019-01-27T22:17:43.412Z,97930.94
2019-01-27T22:20:14.283Z,97938.38
2019-01-27T22:22:43.492Z,97935.75
2019-01-27T22:25:13.997Z,97942.77
2019-01-27T22:27:43.231Z,97950.21
2019-01-27T22:30:15.314Z,97944.13
2019-01-27T22:32:44.554Z,97944.14
2019-01-27T22:35:13.735Z,97948.57
2019-01-27T22:37:42.982Z,97965.61
2019-01-27T22:40:14.336Z,97959.95
2019-01-27T22:42:43.686Z,97963.88
2019-01-27T22:45:16.550Z,97965.19
2019-01-27T22:47:45.781Z,97965.17
2019-01-27T22:50:16.706Z,97971.27
2019-01-27T22:52:45.941Z,97966.04
2019-01-27T22:55:15.171Z,97967.78
2019-01-27T22:57:44.431Z,97972.57
2019-01-27T23:00:41.155Z,97977.38
2019-01-27T23:03:10.410Z,97976.95
2019-01-27T23:05:39.614Z,97973.51
2019-01-27T23:08:08.835Z,97979.27
2019-01-27T23:10:38.029Z,97984.97
2019-01-27T23:13:07.276Z,97993.74
2019-01-27T23:15:37.256Z,97992.53
2019-01-27T23:18:06.479Z,97992.56
2019-01-27T23:20:39.801Z,97990.86
2019-01-27T23:23:09.035Z,97990.02
2019-01-27T23:25:38.260Z,98001.40
2019-01-27T23:28:07.456Z,98001.85
2019-01-27T23:30:36.675Z,98007.50
2019-01-27T23:33:05.912Z,98007.53
2019-01-27T23:35:35.100Z,98010.13
2019-01-27T23:38:04.374Z,98008.35
2019-01-27T23:40:33.822Z,98006.13
2019-01-27T23:43:03.049Z,98010.04
2019-01-27T23:45:32.276Z,98006.52
2019-01-27T23:48:01.481Z,98014.31
2019-01-27T23:50:31.770Z,98014.30
2019-01-27T23:53:00.991Z,98016.91
2019-01-27T23:55:30.186Z,98021.23
2019-01-27T23:57:59.384Z,98017.32
